Time;durP1;ratioP1;P1;durP2;ratioP2;P2;SDS_P1;SDS_P2;PMS_P1;PMS_P2;Temp;Humidity;BMP_temperature;BMP_pressure;BME280_temperature;BME280_humidity;BME280_pressure;Samples;Min_cycle;Max_cycle;Signal;HPM_P1;HPM_P2
2023/05/04 00:00:00;;;;;;;;;;;;;;;;;;;;;
2023/05/04 00:03:53;;;;;;;;;;;;;;;;;;;;;
2023/05/04 00:07:56;;;;;;;34.60;20.30;;;;;;;3.77;67.25;101280.77;124880;1327;114975;-70
2023/05/04 00:11:42;;;;;;;40.80;21.80;;;;;;;3.73;67.50;101283.27;124207;1316;127042;-70
2023/05/04 00:15:36;;;;;;;;;;;;;;;;;;;;;
2023/05/04 00:24:00;;;;;;;;;;;;;;;;;;;;;
2023/05/04 00:28:05;;;;;;;37.00;20.30;;;;;;;3.58;67.82;101272.92;128179;1297;129104;-70
2023/05/04 00:32:01;;;;;;;34.50;21.00;;;;;;;3.54;67.95;101272.95;127907;1283;115769;-67
2023/05/04 00:36:02;;;;;;;37.40;20.80;;;;;;;3.48;68.02;101266.80;124181;1282;5324394;-69
2023/05/04 00:39:57;;;;;;;29.10;18.20;;;;;;;3.43;68.03;101270.35;126939;1292;115336;-70
2023/05/04 00:43:51;;;;;;;34.00;18.20;;;;;;;3.40;68.26;101265.23;126822;1310;114929;-70
2023/05/04 00:47:42;;;;;;;;;;;;;;;;;;;;;
2023/05/04 00:51:39;;;;;;;;;;;;;;;;;;;;;
2023/05/04 00:55:28;;;;;;;27.10;17.30;;;;;;;3.26;68.49;101271.30;125295;1304;116037;-69
2023/05/04 01:03:38;;;;;;;;;;;;;;;;;;;;;
2023/05/04 01:07:43;;;;;;;;;;;;;;;;;;;;;
2023/05/04 01:11:36;;;;;;;25.20;15.60;;;;;;;3.12;68.79;101276.81;128507;1284;115268;-67
2023/05/04 01:15:35;;;;;;;24.80;15.90;;;;;;;3.09;68.89;101273.83;127927;1275;5502142;-68
2023/05/04 01:19:18;;;;;;;;;;;;;;;;;;;;;
2023/05/04 01:23:10;;;;;;;;;;;;;;;;;;;;;
2023/05/04 01:27:06;;;;;;;26.50;16.40;;;;;;;2.99;69.06;101283.56;127552;1289;115248;-66
2023/05/04 01:31:11;;;;;;;23.20;15.90;;;;;;;2.96;69.25;101280.39;128104;1284;114957;-67
2023/05/04 01:35:13;;;;;;;23.40;14.50;;;;;;;2.93;69.31;101280.56;127664;1278;114947;-66
2023/05/04 01:39:13;;;;;;;22.90;14.80;;;;;;;2.89;69.48;101278.10;126635;1289;114859;-67
2023/05/04 01:42:46;;;;;;;;;;;;;;;2.85;69.31;101277.05;125751;1317;127749;-68
2023/05/04 01:46:33;;;;;;;23.40;14.70;;;;;;;2.80;69.57;101274.96;126575;1311;114826;-68
2023/05/04 01:50:27;;;;;;;28.20;15.70;;;;;;;2.77;69.71;101277.60;126385;1294;114903;-66
2023/05/04 01:54:26;;;;;;;;;;;;;;;;;;;;;
2023/05/04 01:58:14;;;;;;;;;;;;;;;;;;;;;
2023/05/04 02:01:59;;;;;;;26.20;16.00;;;;;;;2.65;69.90;101273.91;125898;1315;129528;-67
2023/05/04 02:06:01;;;;;;;22.80;14.30;;;;;;;2.61;69.98;101274.10;126113;1295;116379;-67
2023/05/04 02:10:02;;;;;;;24.70;16.30;;;;;;;2.57;70.03;101278.86;125198;1307;114916;-68
2023/05/04 02:13:45;;;;;;;23.50;13.50;;;;;;;2.54;70.00;101275.16;124676;1313;114852;-67
2023/05/04 02:17:47;;;;;;;22.10;13.90;;;;;;;2.50;70.19;101276.91;124925;1310;114930;-68
2023/05/04 02:26:20;;;;;;;23.30;14.10;;;;;;;2.45;70.27;101271.81;126067;1303;637630;-67
2023/05/04 02:30:16;;;;;;;25.10;14.60;;;;;;;2.40;70.45;101271.27;127897;1277;128866;-67
2023/05/04 02:34:09;;;;;;;;;;;;;;;;;;;;;
2023/05/04 02:41:57;;;;;;;;;;;;;;;;;;;;;
2023/05/04 02:45:49;;;;;;;24.30;13.20;;;;;;;2.27;70.32;101268.81;126089;1301;115547;-68
2023/05/04 02:49:50;;;;;;;23.30;13.60;;;;;;;2.24;70.49;101269.16;125561;1308;130037;-68
2023/05/04 02:57:47;;;;;;;23.80;14.10;;;;;;;2.19;70.54;101268.10;126110;1295;637477;-68
2023/05/04 03:01:47;;;;;;;20.20;13.80;;;;;;;2.14;70.68;101274.63;127849;1283;128566;-68
2023/05/04 03:05:30;;;;;;;;;;;;;;;;;;;;;
2023/05/04 03:09:19;;;;;;;;;;;;;;;;;;;;;
2023/05/04 03:13:23;;;;;;;22.20;14.70;;;;;;;2.06;71.04;101272.33;122689;1293;114931;-68
2023/05/04 03:17:25;;;;;;;25.60;14.90;;;;;;;2.05;71.29;101274.44;126468;1295;115060;-67
2023/05/04 03:21:27;;;;;;;25.80;14.30;;;;;;;2.04;71.01;101277.61;125767;1304;114954;-66
2023/05/04 03:25:26;;;;;;;;;;;;;;;;;;;;;
2023/05/04 03:33:25;;;;;;;22.40;14.00;;;;;;;2.06;71.27;101279.54;126366;1295;638664;-66
2023/05/04 03:41:09;;;;;;;26.50;14.20;;;;;;;2.07;71.57;101285.54;128386;1278;115491;-67
2023/05/04 03:45:13;;;;;;;30.50;15.20;;;;;;;2.09;71.50;101286.42;127207;1286;114916;-67
2023/05/04 03:49:16;;;;;;;25.30;13.40;;;;;;;2.14;71.74;101282.90;123137;1288;114956;-66
2023/05/04 03:53:11;;;;;;;;;;;;;;;;;;;;;
2023/05/04 04:01:34;;;;;;;;;;;;;;;;;;;;;
2023/05/04 04:05:38;;;;;;;24.50;16.40;;;;;;;2.45;72.02;101283.44;128788;1277;127997;-67
2023/05/04 04:09:43;;;;;;;27.90;15.20;;;;;;;2.54;72.07;101289.27;127623;1304;115886;-65
2023/05/04 04:13:46;;;;;;;19.60;13.40;;;;;;;2.64;72.24;101288.02;122797;1292;5399722;-68
2023/05/04 04:17:47;;;;;;;24.90;15.20;;;;;;;2.76;72.33;101291.00;125659;1299;114985;-67
2023/05/04 04:21:33;;;;;;;;;;;;;;;;;;;;;
2023/05/04 04:29:46;;;;;;;;;;;;;;;;;;;;;
2023/05/04 04:33:24;;;;;;;29.20;16.10;;;;;;;3.31;72.79;101290.34;128654;1278;127642;-67
2023/05/04 04:36:58;;;;;;;32.20;17.10;;;;;;;3.45;72.94;101291.00;128178;1282;115360;-64
2023/05/04 04:40:36;;;;;;;33.60;18.30;;;;;;;3.60;73.13;101289.87;127810;1285;114850;-67
2023/05/04 04:44:22;;;;;;;35.50;19.60;;;;;;;3.78;73.13;101282.19;123336;1290;5425026;-65
2023/05/04 04:48:03;;;;;;;;;;;;;;;;;;;;;
2023/05/04 04:51:51;;;;;;;28.60;19.00;;;;;;;4.47;74.33;101288.60;127085;1287;114848;-69
2023/05/04 04:56:02;;;;;;;28.90;17.70;;;;;;;5.84;75.52;101285.84;126402;1294;129396;-68
2023/05/04 04:59:19;;;;;;;28.70;17.10;;;;;;;7.62;74.59;101284.15;126202;1297;115247;-70
2023/05/04 05:03:18;;;;;;;;;;;;;;;;;;;;;
2023/05/04 05:07:29;;;;;;;20.70;13.00;;;;;;;10.74;70.53;101273.27;126409;1296;114976;-71
2023/05/04 05:11:15;;;;;;;;;;;;;;;;;;;;;
2023/05/04 05:15:02;;;;;;;;;;;;;;;;;;;;;
2023/05/04 05:19:05;;;;;;;18.80;12.10;;;;;;;13.91;64.97;101255.49;126983;1280;115295;-72
2023/05/04 05:22:54;;;;;;;19.90;12.80;;;;;;;14.66;62.80;101250.74;127352;1286;114821;-71
2023/05/04 05:26:49;;;;;;;19.00;12.20;;;;;;;15.21;61.27;101253.27;126167;1308;116482;-71
2023/05/04 05:30:42;;;;;;;;;;;;;;;;;;;;;
2023/05/04 05:34:37;;;;;;;17.50;10.90;;;;;;;16.03;58.87;101248.05;125569;1322;127674;-69
2023/05/04 05:42:45;;;;;;;16.40;9.20;;;;;;;16.81;56.17;101247.31;126008;1300;636284;-69
2023/05/04 05:46:26;;;;;;;;;;;;;;;;;;;;;
2023/05/04 05:50:22;;;;;;;;;;;;;;;;;;;;;
2023/05/04 05:54:06;;;;;;;;;;;;;;;;;;;;;
2023/05/04 05:58:12;;;;;;;14.30;9.10;;;;;;;16.87;51.81;101251.79;123089;1291;114948;-70
2023/05/04 06:02:06;;;;;;;;;;;;;;;;;;;;;
2023/05/04 06:05:49;;;;;;;16.80;9.50;;;;;;;17.84;50.42;101249.25;125300;1322;114903;-72
2023/05/04 06:09:33;;;;;;;;;;;;;;;;;;;;;
2023/05/04 06:12:57;;;;;;;17.90;9.50;;;;;;;18.80;49.33;101247.41;124549;1305;115367;-69
2023/05/04 06:16:15;;;;;;;18.60;9.30;;;;;;;19.30;48.55;101243.79;125037;1311;114942;-70
2023/05/04 06:19:28;;;;;;;13.50;9.50;;;;;;;19.77;47.88;101246.89;125091;1327;114926;-68
2023/05/04 06:22:57;;;;;;;12.80;7.80;;;;;;;20.14;46.51;101248.55;124929;1308;114800;-72
2023/05/04 06:26:27;;;;;;;14.80;8.30;;;;;;;20.12;44.76;101250.71;124746;1314;128685;-70
2023/05/04 06:30:02;;;;;;;;;;;;;;;;;;;;;
2023/05/04 06:33:25;;;;;;;15.20;8.10;;;;;;;20.49;45.14;101250.46;125619;1301;114821;-69
2023/05/04 06:36:59;;;;;;;;;;;;;;;;;;;;;
2023/05/04 06:40:29;;;;;;;10.70;7.00;;;;;;;21.30;44.07;101254.73;126394;1297;114932;-69
2023/05/04 06:43:36;;;;;;;12.40;7.00;;;;;;;21.63;43.40;101254.71;127533;1280;129724;-70
2023/05/04 06:46:54;;;;;;;12.30;7.40;;;;;;;21.76;42.68;101255.11;128239;1280;115018;-71
2023/05/04 06:50:25;;;;;;;;;;;;;;;;;;;;;
2023/05/04 06:54:13;;;;;;;11.10;6.70;;;;;;;21.94;41.36;101246.70;129162;1272;114858;-67
2023/05/04 06:57:44;;;;;;;11.10;6.70;;;;;;;22.11;40.57;101248.21;128377;1271;115034;-70
2023/05/04 07:01:10;;;;;;;7.90;5.30;;;;;;;22.27;40.03;101251.44;128760;1277;128646;-67
2023/05/04 07:04:37;;;;;;;;;;;;;;;;;;;;;
2023/05/04 07:08:23;;;;;;;;;;;;;;;;;;;;;
2023/05/04 07:12:09;;;;;;;8.20;5.00;;;;;;;22.50;38.21;101250.66;128450;1273;114768;-68
2023/05/04 07:15:35;;;;;;;;;;;;;;;;;;;;;
2023/05/04 07:19:01;;;;;;;10.10;5.60;;;;;;;22.51;36.90;101249.70;127946;1283;128680;-71
2023/05/04 07:22:26;;;;;;;6.00;5.00;;;;;;;22.71;36.75;101247.05;128280;1290;115274;-70
2023/05/04 07:26:07;;;;;;;6.60;4.60;;;;;;;22.80;35.62;101246.48;128376;1280;114976;-69
2023/05/04 07:29:49;;;;;;;5.30;3.80;;;;;;;23.00;35.35;101244.04;127618;1282;114870;-68
2023/05/04 07:33:19;;;;;;;;;;;;;;;;;;;;;
2023/05/04 07:36:36;;;;;;;6.80;5.40;;;;;;;23.38;34.66;101240.52;128013;1283;127780;-65
2023/05/04 07:39:38;;;;;;;10.80;4.10;;;;;;;23.69;34.27;101232.15;127860;1283;115361;-68
2023/05/04 07:42:53;;;;;;;9.20;4.00;;;;;;;24.09;34.03;101227.27;128264;1276;114756;-66
2023/05/04 07:46:19;;;;;;;6.10;4.70;;;;;;;24.38;32.94;101228.08;128262;1281;114864;-68
2023/05/04 07:49:56;;;;;;;6.30;3.90;;;;;;;24.59;32.76;101225.94;128589;1283;114768;-62
2023/05/04 07:52:58;;;;;;;8.30;4.40;;;;;;;24.91;32.60;101221.65;128437;1273;128883;-63
2023/05/04 07:56:36;;;;;;;5.90;4.00;;;;;;;25.11;31.61;101222.66;128820;1290;114916;-62
2023/05/04 08:00:21;;;;;;;5.80;4.00;;;;;;;25.36;31.28;101219.52;129163;1275;115350;-63
2023/05/04 08:03:33;;;;;;;4.50;3.70;;;;;;;25.35;30.42;101220.86;128934;1283;114928;-62
2023/05/04 08:07:31;;;;;;;7.30;3.80;;;;;;;25.46;30.71;101218.13;129261;1282;114820;-75
2023/05/04 08:11:29;;;;;;;;;;;;;;;;;;;;;
2023/05/04 08:15:30;;;;;;;;;;;;;;;;;;;;;
2023/05/04 08:19:32;;;;;;;5.40;3.50;;;;;;;26.05;29.65;101207.61;127558;1297;114965;-60
2023/05/04 08:23:34;;;;;;;6.40;3.80;;;;;;;26.29;29.16;101212.94;127048;1305;114867;-63
2023/05/04 08:27:18;;;;;;;4.20;2.20;;;;;;;26.10;28.14;101207.59;125808;1309;114936;-62
2023/05/04 08:31:12;;;;;;;5.40;2.20;;;;;;;25.87;27.34;101210.64;125655;1299;121051;-67
2023/05/04 08:38:33;;;;;;;3.90;2.50;;;;;;;25.01;25.99;101210.45;126312;1297;636175;-58
2023/05/04 08:42:15;;;;;;;4.90;3.00;;;;;;;24.57;26.79;101201.31;129031;1271;127665;-63
2023/05/04 08:46:20;;;;;;;4.00;2.90;;;;;;;24.38;27.68;101204.09;128452;1286;114960;-61
2023/05/04 08:50:23;;;;;;;5.30;3.00;;;;;;;24.21;26.82;101203.00;127856;1284;114920;-61
2023/05/04 08:54:12;;;;;;;;;;;;;;;;;;;;;
2023/05/04 08:57:53;;;;;;;7.30;3.30;;;;;;;23.40;27.30;101199.20;125018;1324;114978;-58
2023/05/04 09:01:34;;;;;;;3.80;3.40;;;;;;;23.42;27.63;101194.63;125245;1323;114943;-62
2023/05/04 09:05:20;;;;;;;4.90;3.00;;;;;;;23.23;27.44;101192.85;125028;1317;128930;-59
2023/05/04 09:13:31;;;;;;;6.00;3.90;;;;;;;22.59;27.42;101184.18;126348;1299;635866;-60
2023/05/04 09:17:37;;;;;;;4.80;3.20;;;;;;;22.40;28.13;101180.11;128423;1276;127919;-61
2023/05/04 09:21:43;;;;;;;5.30;3.10;;;;;;;22.11;27.55;101183.98;126410;1306;114711;-59
2023/05/04 09:25:52;;;;;;;5.10;3.50;;;;;;;21.78;27.99;101186.19;122896;1300;5432804;-62
2023/05/04 09:29:36;;;;;;;;;;;;;;;;;;;;;
2023/05/04 09:33:45;;;;;;;;;;;;;;;;;;;;;
2023/05/04 09:38:02;;;;;;;4.70;3.30;;;;;;;20.57;28.88;101179.27;126473;1292;635957;-59
2023/05/04 09:42:13;;;;;;;;;;;;;;;;;;;;;
2023/05/04 09:46:12;;;;;;;;;;;;;;;;;;;;;
2023/05/04 09:50:00;;;;;;;7.00;3.50;;;;;;;20.26;29.44;101165.52;123241;1301;5414189;-59
2023/05/04 09:53:53;;;;;;;5.30;3.50;;;;;;;20.03;29.95;101159.25;127652;1284;115207;-59
2023/05/04 09:57:57;;;;;;;3.50;2.80;;;;;;;19.85;29.97;101163.70;127898;1292;114846;-59
2023/05/04 10:01:52;;;;;;;5.10;3.20;;;;;;;19.46;29.65;101154.73;126844;1308;114801;-59
2023/05/04 10:05:56;;;;;;;5.20;3.50;;;;;;;19.25;29.88;101156.11;126288;1296;128732;-60
2023/05/04 10:14:15;;;;;;;;;;;;;;;;;;;;;
2023/05/04 10:18:35;;;;;;;6.60;3.10;;;;;;;18.78;30.05;101155.05;126924;1289;127861;-57
2023/05/04 10:22:41;;;;;;;5.80;3.30;;;;;;;18.49;30.29;101152.69;127177;1286;116558;-58
2023/05/04 10:26:58;;;;;;;6.60;3.10;;;;;;;18.35;31.09;101144.95;123424;1289;5457446;-58
2023/05/04 10:30:58;;;;;;;6.00;3.50;;;;;;;18.29;31.56;101140.38;127380;1286;114922;-60
2023/05/04 10:35:01;;;;;;;5.70;3.20;;;;;;;18.35;32.05;101135.74;126619;1289;114866;-57
2023/05/04 10:39:12;;;;;;;5.90;3.00;;;;;;;18.30;31.31;101131.21;126548;1286;115031;-58
2023/05/04 10:43:16;;;;;;;3.70;3.10;;;;;;;18.21;31.48;101124.03;125394;1303;130338;-58
2023/05/04 10:51:37;;;;;;;4.90;2.80;;;;;;;17.88;30.90;101122.63;126101;1305;635780;-60
2023/05/04 10:55:46;;;;;;;3.40;2.80;;;;;;;17.58;31.20;101116.84;128452;1279;128102;-58
2023/05/04 10:59:52;;;;;;;;;;;;;;;;;;;;;
2023/05/04 11:03:28;;;;;;;4.20;3.20;;;;;;;17.49;31.65;101099.56;121948;1312;5434249;-58
2023/05/04 11:07:23;;;;;;;12.40;6.50;;;;;;;17.41;31.69;101103.54;125428;1315;114856;-58
2023/05/04 11:11:06;;;;;;;4.30;2.80;;;;;;;17.27;31.80;101095.92;125595;1299;115007;-58
2023/05/04 11:15:08;;;;;;;4.20;3.60;;;;;;;17.21;31.98;101093.08;124959;1307;127965;-59
2023/05/04 11:19:07;;;;;;;;;;;;;;;;;;;;;
2023/05/04 11:23:08;;;;;;;;;;;;;;;;;;;;;
2023/05/04 11:27:29;;;;;;;4.60;3.30;;;;;;;16.98;32.50;101070.88;126490;1293;636460;-58
2023/05/04 11:31:13;;;;;;;;;;;;;;;;;;;;;
2023/05/04 11:35:21;;;;;;;6.30;2.80;;;;;;;17.08;33.06;101063.25;127921;1284;115023;-75
2023/05/04 11:39:25;;;;;;;5.50;2.60;;;;;;;17.11;32.97;101059.79;122781;1299;5475525;-74
2023/05/04 11:43:14;;;;;;;5.50;2.60;;;;;;;17.11;32.80;101055.60;125288;1301;114801;-72
2023/05/04 11:47:05;;;;;;;5.00;2.80;;;;;;;17.08;32.76;101049.51;125543;1307;114820;-73
2023/05/04 11:50:46;;;;;;;5.60;2.60;;;;;;;17.06;32.72;101052.19;124465;1314;129902;-74
2023/05/04 11:54:38;;;;;;;4.60;3.10;;;;;;;16.98;32.85;101051.00;124309;1318;115318;-73
2023/05/04 11:58:31;;;;;;;;;;;;;;;;;;;;;
2023/05/04 12:02:41;;;;;;;10.00;3.10;;;;;;;17.01;33.00;101050.51;126538;1291;635924;-73
2023/05/04 12:06:31;;;;;;;;;;;;;;;;;;;;;
2023/05/04 12:10:47;;;;;;;4.40;2.90;;;;;;;16.98;32.76;101047.59;128903;1276;115374;-74
2023/05/04 12:14:43;;;;;;;4.90;2.30;;;;;;;16.97;33.14;101045.16;123176;1301;5412270;-72
2023/05/04 12:18:46;;;;;;;4.20;2.80;;;;;;;16.97;33.49;101042.48;126897;1296;114852;-73
2023/05/04 12:22:51;;;;;;;;;;;;;;;;;;;;;
2023/05/04 12:26:54;;;;;;;9.00;2.90;;;;;;;16.94;33.42;101031.06;125093;1310;114971;-72
2023/05/04 12:35:03;;;;;;;5.50;2.60;;;;;;;16.99;33.43;101016.83;126150;1300;636248;-73
2023/05/04 12:42:55;;;;;;;;;;;;;;;;;;;;;
2023/05/04 12:46:55;;;;;;;;;;;;;;;;;;;;;
2023/05/04 12:50:44;;;;;;;;;;;;;;;;;;;;;
2023/05/04 12:54:47;;;;;;;3.60;2.40;;;;;;;16.97;32.99;101004.91;126287;1299;129891;-72
2023/05/04 12:58:36;;;;;;;4.90;2.60;;;;;;;16.99;33.21;101004.23;125155;1305;114830;-73
2023/05/04 13:03:11;;;;;;;4.30;3.10;;;;;;;17.04;33.06;101001.04;125876;1294;638606;-71
2023/05/04 13:06:55;;;;;;;7.00;2.60;;;;;;;17.00;33.20;100996.20;127549;1281;128856;-72
2023/05/04 13:10:59;;;;;;;3.00;2.50;;;;;;;17.02;33.16;100999.16;126830;1292;115269;-73
2023/05/04 13:15:00;;;;;;;6.20;2.60;;;;;;;17.03;33.23;100995.88;121723;1304;5509035;-72
2023/05/04 13:18:54;;;;;;;;;;;;;;;;;;;;;
2023/05/04 13:22:37;;;;;;;;;;;;;;;;;;;;;
2023/05/04 13:26:17;;;;;;;;;;;;;;;;;;;;;
2023/05/04 13:30:53;;;;;;;9.20;2.70;;;;;;;17.15;32.73;100976.69;125720;1303;639846;-72
2023/05/04 13:34:39;;;;;;;;;;;;;;;;;;;;;
2023/05/04 13:39:08;;;;;;;5.10;2.20;;;;;;;17.09;32.72;100958.13;128211;1280;116457;-72
2023/05/04 13:42:45;;;;;;;5.30;2.10;;;;;;;17.09;32.11;100949.09;123663;1284;5455324;-73
2023/05/04 13:46:48;;;;;;;5.50;2.20;;;;;;;17.13;32.59;100948.09;126891;1295;114876;-72
2023/05/04 13:50:53;;;;;;;3.00;2.60;;;;;;;17.17;32.73;100943.84;126125;1296;114927;-72
2023/05/04 13:58:55;;;;;;;4.90;2.60;;;;;;;17.25;33.09;100935.73;126531;1292;637957;-71
2023/05/04 14:02:58;;;;;;;4.00;2.30;;;;;;;17.29;32.69;100935.86;128896;1273;128737;-72
2023/05/04 14:06:41;;;;;;;5.50;2.80;;;;;;;17.29;32.65;100925.35;128910;1273;115292;-72
2023/05/04 14:10:27;;;;;;;;;;;;;;;;;;;;;
2023/05/04 14:14:00;;;;;;;4.40;2.40;;;;;;;17.28;32.45;100918.38;123724;1290;115405;-73
2023/05/04 14:17:53;;;;;;;2.80;2.00;;;;;;;17.31;32.36;100912.45;128070;1282;114859;-73
2023/05/04 14:21:16;;;;;;;6.50;2.30;;;;;;;17.31;32.68;100911.70;128361;1273;114947;-73
2023/05/04 14:24:57;;;;;;;;;;;;;;;;;;;;;
2023/05/04 14:28:21;;;;;;;4.70;2.00;;;;;;;17.29;32.35;100898.98;128204;1297;115342;-72
2023/05/04 14:31:52;;;;;;;3.20;2.30;;;;;;;17.30;32.43;100894.59;128462;1280;114907;-72
2023/05/04 14:36:27;;;;;;;5.80;2.90;;;;;;;17.29;32.44;100893.20;128255;1279;114805;-72
2023/05/04 14:39:08;;;;;;;3.10;2.40;;;;;;;17.29;32.35;100887.41;128620;1294;114916;-71
2023/05/04 14:42:25;;;;;;;2.70;2.20;;;;;;;17.30;32.36;100885.91;128757;1276;128651;-71
2023/05/04 14:45:56;;;;;;;;;;;;;;;;;;;;;
2023/05/04 14:50:04;;;;;;;3.30;2.10;;;;;;;17.33;32.28;100877.83;129394;1286;114924;-71
2023/05/04 14:54:05;;;;;;;3.90;2.10;;;;;;;17.39;31.88;100882.84;129044;1269;114868;-72
2023/05/04 14:58:08;;;;;;;7.50;3.20;;;;;;;17.42;31.91;100880.81;128734;1277;114852;-72
2023/05/04 15:02:11;;;;;;;6.10;2.50;;;;;;;17.47;32.03;100878.10;128629;1277;127711;-72
2023/05/04 15:06:13;;;;;;;3.20;2.20;;;;;;;17.49;31.66;100875.64;127831;1280;115479;-71
2023/05/04 15:10:14;;;;;;;;;;;;;;;;;;;;;
2023/05/04 15:13:58;;;;;;;3.60;2.60;;;;;;;17.58;31.78;100864.00;125852;1317;114902;-71
2023/05/04 15:17:58;;;;;;;6.00;2.50;;;;;;;17.60;32.10;100861.27;125520;1319;114927;-71
2023/05/04 15:21:58;;;;;;;;;;;;;;;;;;;;;
2023/05/04 15:26:25;;;;;;;3.60;2.30;;;;;;;17.72;32.30;100857.24;126264;1293;635566;-72
2023/05/04 15:30:27;;;;;;;6.40;2.30;;;;;;;17.71;32.16;100859.42;128352;1278;127786;-71
2023/05/04 15:34:15;;;;;;;;;;;;;;;;;;;;;
2023/05/04 15:38:19;;;;;;;4.20;2.20;;;;;;;17.83;32.42;100850.30;124632;1274;5503194;-71
2023/05/04 15:42:13;;;;;;;;;;;;;;;;;;;;;
2023/05/04 15:46:15;;;;;;;4.60;2.20;;;;;;;17.91;32.61;100845.17;126868;1292;114934;-75
2023/05/04 15:50:17;;;;;;;4.10;2.50;;;;;;;17.92;32.30;100839.53;125772;1300;115047;-72
2023/05/04 15:54:07;;;;;;;;;;;;;;;;;;;;;
2023/05/04 16:02:31;;;;;;;7.10;2.90;;;;;;;18.03;32.34;100831.74;126570;1293;640476;-72
2023/05/04 16:06:33;;;;;;;5.60;2.60;;;;;;;18.00;32.22;100831.77;127115;1298;128796;-72
2023/05/04 16:10:35;;;;;;;5.90;2.60;;;;;;;18.01;32.18;100827.16;126044;1297;115496;-72
2023/05/04 16:14:30;;;;;;;3.10;2.40;;;;;;;18.03;32.18;100821.41;121633;1305;5549692;-72
2023/05/04 16:22:47;;;;;;;;;;;;;;;;;;;;;
2023/05/04 16:26:15;;;;;;;4.60;2.50;;;;;;;17.98;31.67;100812.92;127826;1287;127921;-73
2023/05/04 16:30:17;;;;;;;3.90;2.40;;;;;;;17.95;31.76;100809.53;128016;1282;114893;-72
2023/05/04 16:34:30;;;;;;;6.00;2.60;;;;;;;17.93;31.72;100804.95;126762;1293;114826;-71
2023/05/04 16:37:39;;;;;;;12.80;2.50;;;;;;;17.87;31.88;100804.48;122404;1300;114929;-73
2023/05/04 16:41:32;;;;;;;;;;;;;;;;;;;;;
2023/05/04 16:45:09;;;;;;;;;;;;;;;;;;;;;
2023/05/04 16:48:42;;;;;;;6.20;2.10;;;;;;;17.76;32.23;100794.02;124910;1323;128349;-72
2023/05/04 16:52:36;;;;;;;6.40;2.10;;;;;;;17.71;32.06;100795.17;124953;1310;116683;-72
2023/05/04 16:56:27;;;;;;;;;;;;;;;;;;;;;
2023/05/04 17:00:12;;;;;;;4.90;2.00;;;;;;;17.58;32.20;100790.80;124247;1316;115022;-72
2023/05/04 17:04:03;;;;;;;5.80;2.30;;;;;;;17.51;31.95;100788.29;124896;1325;114878;-72
2023/05/04 17:07:44;;;;;;;;;;;;;;;;;;;;;
2023/05/04 17:11:27;;;;;;;4.00;2.00;;;;;;;17.38;32.09;100790.27;125822;1307;115216;-71
2023/05/04 17:15:25;;;;;;;5.80;2.20;;;;;;;17.29;32.06;100789.63;126365;1301;114889;-71
2023/05/04 17:18:53;;;;;;;5.00;2.70;;;;;;;17.21;32.44;100785.81;126660;1291;114901;-73
2023/05/04 17:22:37;;;;;;;5.40;2.40;;;;;;;17.14;32.41;100788.47;127532;1286;115019;-75
2023/05/04 17:26:11;;;;;;;4.40;2.10;;;;;;;17.07;32.59;100792.77;127638;1280;129053;-74
2023/05/04 17:29:46;;;;;;;;;;;;;;;;;;;;;
2023/05/04 17:33:24;;;;;;;8.00;3.60;;;;;;;16.89;32.60;100788.18;126468;1289;116812;-73
2023/05/04 17:36:47;;;;;;;4.50;3.00;;;;;;;16.77;33.10;100789.89;126668;1298;114838;-73
2023/05/04 17:40:51;;;;;;;5.50;2.90;;;;;;;16.66;33.30;100791.33;127017;1292;115686;-73
2023/05/04 17:44:35;;;;;;;11.20;3.00;;;;;;;16.54;33.70;100785.80;126717;1308;129775;-73
2023/05/04 17:48:23;;;;;;;;;;;;;;;;;;;;;
2023/05/04 17:52:06;;;;;;;;;;;;;;;;;;;;;
2023/05/04 17:56:13;;;;;;;11.40;6.20;;;;;;;16.18;34.93;100795.90;126527;1299;114811;-74
2023/05/04 17:59:56;;;;;;;12.10;5.90;;;;;;;16.05;35.19;100797.50;126363;1307;115015;-73
2023/05/04 18:03:20;;;;;;;7.90;4.80;;;;;;;15.91;35.30;100801.49;125653;1300;129761;-73
2023/05/04 18:07:22;;;;;;;9.00;4.60;;;;;;;15.80;35.78;100803.20;125829;1303;115386;-73
2023/05/04 18:11:16;;;;;;;;;;;;;;;;;;;;;
2023/05/04 18:15:06;;;;;;;6.50;3.60;;;;;;;15.54;36.51;100813.45;125021;1314;115073;-72
2023/05/04 18:23:34;;;;;;;12.70;5.30;;;;;;;15.32;37.34;100818.02;126051;1296;640195;-73
2023/05/04 18:27:21;;;;;;;7.70;4.30;;;;;;;15.19;37.16;100822.10;127622;1277;127610;-74
2023/05/04 18:31:21;;;;;;;6.20;4.40;;;;;;;15.08;37.32;100829.91;128477;1280;114808;-73
2023/05/04 18:35:24;;;;;;;8.30;4.20;;;;;;;14.97;37.66;100834.17;123986;1279;5441379;-74
2023/05/04 18:38:48;;;;;;;9.80;4.50;;;;;;;14.86;38.03;100833.20;127524;1286;114823;-72
2023/05/04 18:42:32;;;;;;;8.70;4.10;;;;;;;14.77;38.46;100829.22;127494;1284;115073;-74
2023/05/04 18:46:15;;;;;;;9.80;4.40;;;;;;;14.67;39.20;100831.74;127127;1287;129560;-72
2023/05/04 18:49:59;;;;;;;;;;;;;;;;;;;;;
2023/05/04 18:53:59;;;;;;;;;;;;;;;;;;;;;
2023/05/04 18:58:02;;;;;;;10.30;4.10;;;;;;;14.30;40.46;100833.33;125847;1300;114958;-73
2023/05/04 19:06:35;;;;;;;9.30;4.70;;;;;;;14.06;41.43;100842.37;125608;1304;638619;-71
2023/05/04 19:10:26;;;;;;;12.30;4.90;;;;;;;13.91;41.56;100845.70;126826;1293;127999;-72
2023/05/04 19:14:28;;;;;;;;;;;;;;;;;;;;;
2023/05/04 19:18:25;;;;;;;;;;;;;;;;;;;;;
2023/05/04 19:22:28;;;;;;;10.80;5.00;;;;;;;13.61;42.31;100841.24;126288;1300;114864;-72
2023/05/04 19:26:22;;;;;;;11.30;5.20;;;;;;;13.50;42.52;100843.23;125564;1307;114879;-73
2023/05/04 19:30:23;;;;;;;12.30;6.10;;;;;;;13.40;42.91;100844.48;125535;1306;114866;-71
2023/05/04 19:34:24;;;;;;;;;;;;;;;;;;;;;
2023/05/04 19:38:49;;;;;;;;;;;;;;;;;;;;;
2023/05/04 19:42:53;;;;;;;15.70;9.10;;;;;;;13.13;44.38;100843.89;127415;1286;129287;-71
2023/05/04 19:46:51;;;;;;;15.80;8.50;;;;;;;13.03;44.70;100842.05;126629;1296;115254;-71
2023/05/04 19:50:43;;;;;;;21.80;12.50;;;;;;;12.94;45.30;100840.71;122223;1311;5454988;-70
2023/05/04 19:54:41;;;;;;;18.80;12.00;;;;;;;12.85;45.43;100824.84;125953;1302;114904;-72
2023/05/04 19:58:33;;;;;;;21.10;11.30;;;;;;;12.79;45.44;100830.01;124685;1313;115058;-73
2023/05/04 20:06:57;;;;;;;22.60;11.60;;;;;;;12.71;46.38;100828.02;126277;1295;648872;-73
2023/05/04 20:14:58;;;;;;;18.20;11.00;;;;;;;12.56;46.98;100823.08;128386;1278;115192;-71
2023/05/04 20:19:02;;;;;;;17.30;10.90;;;;;;;12.46;47.29;100824.80;124492;1297;5405099;-73
2023/05/04 20:23:03;;;;;;;18.60;10.40;;;;;;;12.36;47.88;100828.32;126594;1295;115252;-71
2023/05/04 20:26:50;;;;;;;;;;;;;;;;;;;;;
2023/05/04 20:35:17;;;;;;;;;;;;;;;;;;;;;
2023/05/04 20:39:21;;;;;;;23.60;14.10;;;;;;;11.97;49.05;100825.51;127326;1289;128624;-73
2023/05/04 20:43:18;;;;;;;16.20;12.10;;;;;;;11.87;49.34;100824.52;126043;1298;114994;-75
2023/05/04 20:47:18;;;;;;;;;;;;;;;;;;;;;
2023/05/04 20:51:10;;;;;;;;;;;;;;;;;;;;;
2023/05/04 20:58:58;;;;;;;16.20;11.10;;;;;;;11.58;51.15;100820.66;126111;1308;642325;-74
2023/05/04 21:02:53;;;;;;;21.40;11.00;;;;;;;11.50;51.08;100817.63;128410;1280;129353;-75
2023/05/04 21:06:25;;;;;;;16.80;9.30;;;;;;;11.43;51.51;100816.86;128014;1286;116672;-74
2023/05/04 21:10:09;;;;;;;;;;;;;;;;;;;;;
2023/05/04 21:13:18;;;;;;;17.10;11.00;;;;;;;11.29;52.01;100815.15;123566;1289;114775;-73
2023/05/04 21:17:12;;;;;;;;;;;;;;;;;;;;;
2023/05/04 21:20:57;;;;;;;;;;;;;;;;;;;;;
2023/05/04 21:24:37;;;;;;;;;;;;;;;;;;;;;
2023/05/04 21:28:32;;;;;;;23.30;14.90;;;;;;;11.11;52.72;100809.14;125137;1310;115230;-72
2023/05/04 21:36:43;;;;;;;25.60;16.00;;;;;;;11.01;53.11;100813.16;126655;1295;635970;-73
2023/05/04 21:40:45;;;;;;;28.60;15.50;;;;;;;10.94;53.85;100811.80;128879;1276;127916;-74
2023/05/04 21:44:45;;;;;;;;;;;;;;;;;;;;;
2023/05/04 21:48:41;;;;;;;;;;;;;;;;;;;;;
2023/05/04 21:52:17;;;;;;;;;;;;;;;;;;;;;
2023/05/04 21:56:19;;;;;;;23.90;14.10;;;;;;;10.73;54.47;100802.90;124976;1328;114831;-65
2023/05/04 22:00:09;;;;;;;;;;;;;;;;;;;;;
2023/05/04 22:04:27;;;;;;;25.80;14.70;;;;;;;10.58;54.88;100799.22;126072;1308;638459;-66
2023/05/04 22:07:47;;;;;;;26.30;15.20;;;;;;;10.48;54.74;100794.48;128703;1270;129039;-67
2023/05/04 22:11:12;;;;;;;24.90;14.70;;;;;;;10.40;55.28;100793.90;129104;1282;115155;-65
2023/05/04 22:15:15;;;;;;;21.20;10.00;;;;;;;10.30;55.30;100792.81;128535;1292;114918;-66
2023/05/04 22:18:52;;;;;;;;;;;;;;;;;;;;;
2023/05/04 22:22:04;;;;;;;25.50;15.40;;;;;;;10.14;55.69;100787.59;128231;1277;114930;-65
2023/05/04 22:26:08;;;;;;;28.80;16.40;;;;;;;10.08;55.81;100789.63;128549;1288;128666;-64